createdAt,value
2023-04-18T00:01:27.459Z,12.60
2023-04-18T00:03:54.055Z,12.00
2023-04-18T00:06:22.110Z,12.70
2023-04-18T00:08:48.595Z,12.00
2023-04-18T00:11:15.031Z,14.00
2023-04-18T00:13:41.606Z,13.70
2023-04-18T00:16:08.699Z,12.60
2023-04-18T00:18:36.946Z,11.10
2023-04-18T00:21:04.465Z,12.40
2023-04-18T00:23:31.308Z,15.50
2023-04-18T00:25:57.692Z,14.10
2023-04-18T00:28:24.254Z,12.90
2023-04-18T00:30:50.921Z,13.40
2023-04-18T00:33:17.917Z,12.00
2023-04-18T00:35:44.753Z,13.60
2023-04-18T00:38:11.228Z,11.90
2023-04-18T00:40:38.532Z,13.70
2023-04-18T00:43:07.905Z,12.80
2023-04-18T00:45:34.778Z,15.10
2023-04-18T00:48:02.077Z,15.00
2023-04-18T00:50:28.807Z,12.60
2023-04-18T00:52:56.161Z,13.30
2023-04-18T00:55:24.109Z,13.40
2023-04-18T00:57:51.813Z,12.50
2023-04-18T01:00:18.446Z,13.00
2023-04-18T01:02:45.040Z,12.90
2023-04-18T01:05:11.981Z,13.40
2023-04-18T01:07:41.552Z,13.10
2023-04-18T01:10:10.475Z,14.10
2023-04-18T01:12:37.645Z,12.50
2023-04-18T01:15:05.688Z,11.90
2023-04-18T01:17:34.545Z,14.20
2023-04-18T01:20:02.042Z,12.30
2023-04-18T01:22:31.810Z,13.90
2023-04-18T01:24:58.596Z,13.80
2023-04-18T01:27:24.999Z,14.80
2023-04-18T01:29:51.554Z,12.70
2023-04-18T01:32:20.153Z,15.30
2023-04-18T01:34:46.796Z,19.90
2023-04-18T01:37:13.331Z,17.10
2023-04-18T01:39:39.828Z,16.30
2023-04-18T01:42:06.300Z,14.20
2023-04-18T01:44:32.689Z,16.20
2023-04-18T01:46:59.236Z,15.10
2023-04-18T01:49:25.831Z,17.60
2023-04-18T01:51:52.204Z,18.20
2023-04-18T01:54:18.876Z,15.30
2023-04-18T01:56:45.329Z,15.80
2023-04-18T01:59:11.750Z,16.30
2023-04-18T02:01:38.191Z,16.60
2023-04-18T02:04:04.582Z,15.60
2023-04-18T02:06:31.270Z,16.90
2023-04-18T02:08:57.703Z,16.90
2023-04-18T02:11:27.637Z,17.10
2023-04-18T02:13:54.065Z,17.10
2023-04-18T02:16:20.662Z,19.10
2023-04-18T02:18:47.263Z,18.40
2023-04-18T02:21:13.653Z,18.60
2023-04-18T02:23:40.191Z,16.00
2023-04-18T02:26:06.647Z,20.40
2023-04-18T02:28:33.135Z,20.00
2023-04-18T02:31:00.459Z,17.90
2023-04-18T02:33:26.943Z,21.60
2023-04-18T02:35:53.368Z,20.40
2023-04-18T02:38:19.817Z,22.40
2023-04-18T02:40:46.309Z,22.70
2023-04-18T02:43:12.734Z,22.10
2023-04-18T02:45:39.438Z,21.60
2023-04-18T02:48:06.046Z,19.70
2023-04-18T02:50:32.614Z,27.10
2023-04-18T02:52:58.986Z,24.10
2023-04-18T02:55:26.892Z,21.90
2023-04-18T02:57:53.384Z,20.80
2023-04-18T03:00:19.993Z,24.90
2023-04-18T03:02:46.542Z,26.40
2023-04-18T03:05:13.477Z,26.60
2023-04-18T03:07:40.130Z,23.90
2023-04-18T03:10:07.098Z,26.50
2023-04-18T03:12:33.623Z,23.90
2023-04-18T03:15:00.070Z,23.80
2023-04-18T03:17:26.580Z,28.40
2023-04-18T03:19:53.065Z,25.80
2023-04-18T03:22:20.109Z,22.50
2023-04-18T03:24:46.534Z,23.40
2023-04-18T03:27:13.408Z,24.80
2023-04-18T03:29:39.903Z,27.20
2023-04-18T03:32:06.409Z,26.10
2023-04-18T03:34:32.958Z,21.70
2023-04-18T03:36:59.509Z,27.60
2023-04-18T03:39:25.946Z,24.60
2023-04-18T03:41:52.555Z,23.50
2023-04-18T03:44:19.157Z,26.50
2023-04-18T03:46:45.792Z,25.10
2023-04-18T03:49:12.421Z,22.30
2023-04-18T03:51:48.000Z,28.00
2023-04-18T03:54:16.344Z,26.90
2023-04-18T03:56:43.862Z,23.80
2023-04-18T03:59:11.314Z,29.20
2023-04-18T04:01:38.213Z,24.70
2023-04-18T04:04:05.359Z,26.30
2023-04-18T04:06:32.174Z,29.00
2023-04-18T04:08:58.615Z,27.60
2023-04-18T04:11:25.069Z,26.30
2023-04-18T04:13:51.624Z,26.10
2023-04-18T04:16:18.236Z,29.30
2023-04-18T04:18:44.838Z,27.60
2023-04-18T04:21:11.321Z,28.00
2023-04-18T04:23:37.981Z,25.10
2023-04-18T04:26:04.671Z,24.30
2023-04-18T04:28:32.002Z,29.00
2023-04-18T04:30:59.295Z,27.10
2023-04-18T04:33:28.404Z,30.70
2023-04-18T04:35:56.333Z,29.50
2023-04-18T04:38:25.280Z,27.80
2023-04-18T04:40:52.824Z,28.10
2023-04-18T04:43:20.673Z,26.50
2023-04-18T04:45:52.623Z,28.20
2023-04-18T04:48:20.322Z,30.20
2023-04-18T04:50:56.468Z,28.30
2023-04-18T04:53:25.611Z,26.60
2023-04-18T04:55:52.406Z,27.80
2023-04-18T04:58:20.040Z,28.80
2023-04-18T05:00:46.592Z,26.80
2023-04-18T05:03:13.069Z,27.10
2023-04-18T05:05:39.704Z,28.30
2023-04-18T05:08:06.489Z,26.00
2023-04-18T05:10:33.198Z,28.20
2023-04-18T05:12:59.616Z,33.10
2023-04-18T05:15:26.010Z,26.10
2023-04-18T05:17:52.496Z,30.70
2023-04-18T05:20:18.908Z,28.10
2023-04-18T05:22:45.458Z,28.20
2023-04-18T05:25:12.459Z,27.10
2023-04-18T05:27:39.434Z,29.00
2023-04-18T05:30:10.754Z,26.00
2023-04-18T05:32:38.985Z,28.40
2023-04-18T05:35:07.390Z,31.20
2023-04-18T05:37:34.448Z,25.60
2023-04-18T05:40:01.286Z,28.50
2023-04-18T05:42:27.745Z,32.90
2023-04-18T05:44:54.197Z,28.60
2023-04-18T05:47:21.098Z,33.50
2023-04-18T05:49:47.665Z,29.50
2023-04-18T05:52:14.169Z,28.80
2023-04-18T05:54:41.170Z,27.90
2023-04-18T05:57:07.676Z,29.60
2023-04-18T05:59:34.285Z,26.20
2023-04-18T06:02:00.812Z,28.30
2023-04-18T06:04:27.521Z,28.90
2023-04-18T06:06:54.374Z,29.40
2023-04-18T06:09:21.008Z,26.20
2023-04-18T06:11:47.458Z,27.10
2023-04-18T06:14:14.027Z,28.60
2023-04-18T06:16:40.932Z,28.50
2023-04-18T06:19:07.497Z,31.20
2023-04-18T06:21:33.868Z,28.50
2023-04-18T06:24:01.557Z,32.70
2023-04-18T06:26:28.256Z,31.50
2023-04-18T06:28:54.691Z,26.50
2023-04-18T06:31:21.335Z,32.10
2023-04-18T06:33:47.808Z,32.10
2023-04-18T06:36:14.350Z,31.40
2023-04-18T06:38:40.803Z,29.30
2023-04-18T06:41:07.224Z,29.50
2023-04-18T06:43:35.769Z,30.30
2023-04-18T06:46:06.054Z,28.50
2023-04-18T06:48:32.888Z,28.20
2023-04-18T06:50:59.308Z,23.20
2023-04-18T06:53:25.942Z,28.50
2023-04-18T06:55:52.496Z,31.50
2023-04-18T06:58:18.944Z,29.40
2023-04-18T07:00:48.806Z,29.90
2023-04-18T07:03:15.460Z,29.90
2023-04-18T07:05:42.087Z,26.70
2023-04-18T07:08:08.653Z,25.90
2023-04-18T07:10:35.169Z,26.80
2023-04-18T07:13:01.753Z,28.20
2023-04-18T07:15:28.520Z,28.60
2023-04-18T07:17:55.151Z,28.40
2023-04-18T07:20:21.742Z,32.90
2023-04-18T07:22:48.726Z,28.70
2023-04-18T07:25:15.208Z,29.90
2023-04-18T07:27:41.707Z,27.60
2023-04-18T07:30:09.222Z,30.50
2023-04-18T07:32:35.742Z,28.90
2023-04-18T07:35:03.461Z,28.00
2023-04-18T07:37:29.921Z,27.30
2023-04-18T07:39:56.452Z,29.00
2023-04-18T07:42:22.888Z,31.70
2023-04-18T07:44:49.683Z,30.20
2023-04-18T07:47:16.362Z,27.30
2023-04-18T07:49:43.014Z,27.70
2023-04-18T07:52:09.506Z,29.90
2023-04-18T07:54:35.959Z,28.10
2023-04-18T07:57:02.509Z,26.20
2023-04-18T07:59:29.584Z,24.10
2023-04-18T08:01:56.101Z,30.20
2023-04-18T08:04:23.243Z,30.30
2023-04-18T08:06:49.822Z,29.80
2023-04-18T08:09:16.472Z,29.30
2023-04-18T08:11:43.094Z,25.70
2023-04-18T08:14:09.598Z,25.50
2023-04-18T08:16:37.469Z,25.50
2023-04-18T08:21:44.757Z,28.10
2023-04-18T08:24:11.152Z,27.00
2023-04-18T08:26:37.579Z,28.00
2023-04-18T08:29:04.115Z,24.20
2023-04-18T08:31:31.681Z,28.80
2023-04-18T08:33:58.232Z,24.10
2023-04-18T08:36:25.064Z,25.30
2023-04-18T08:38:51.637Z,23.90
2023-04-18T08:41:24.601Z,26.00
2023-04-18T08:43:51.220Z,26.10
2023-04-18T08:46:18.970Z,25.30
2023-04-18T08:48:50.081Z,24.10
2023-04-18T08:51:16.482Z,24.70
2023-04-18T08:53:45.078Z,23.40
2023-04-18T08:56:14.748Z,22.60
2023-04-18T08:58:41.295Z,23.70
2023-04-18T09:01:07.859Z,19.10
2023-04-18T09:03:42.618Z,24.80
2023-04-18T09:06:18.878Z,21.50
2023-04-18T09:08:58.674Z,27.40
2023-04-18T09:11:28.726Z,20.80
2023-04-18T09:13:59.012Z,22.70
2023-04-18T09:16:28.105Z,22.40
2023-04-18T09:19:18.155Z,22.40
2023-04-18T09:21:48.931Z,21.00
2023-04-18T09:24:29.009Z,21.70
2023-04-18T09:26:58.552Z,19.80
2023-04-18T09:29:57.323Z,21.00
2023-04-18T09:32:28.915Z,20.00
2023-04-18T09:35:04.569Z,20.00
2023-04-18T09:37:31.596Z,21.00
2023-04-18T09:39:58.011Z,22.20
2023-04-18T09:42:28.684Z,19.10
2023-04-18T09:45:07.038Z,20.10
2023-04-18T09:47:36.537Z,21.70
2023-04-18T09:50:08.118Z,20.00
2023-04-18T09:52:38.152Z,19.70
2023-04-18T09:55:08.745Z,19.00
2023-04-18T09:57:40.641Z,20.30
2023-04-18T10:00:14.182Z,19.90
2023-04-18T10:02:50.429Z,17.60
2023-04-18T10:05:21.095Z,20.40
2023-04-18T10:07:50.022Z,20.00
2023-04-18T10:10:17.976Z,17.50
2023-04-18T10:12:48.091Z,18.60
2023-04-18T10:15:16.752Z,21.30
2023-04-18T10:18:13.995Z,19.70
2023-04-18T10:20:42.537Z,21.40
2023-04-18T10:23:34.810Z,18.60
2023-04-18T10:26:03.491Z,17.70
2023-04-18T10:28:54.685Z,17.40
2023-04-18T10:31:24.209Z,17.90
2023-04-18T10:36:28.442Z,21.20
2023-04-18T10:39:04.299Z,18.50
2023-04-18T10:41:33.328Z,18.80
2023-04-18T10:44:09.527Z,18.20
2023-04-18T10:46:43.992Z,17.00
2023-04-18T10:49:25.207Z,18.90
2023-04-18T10:51:58.585Z,19.20
2023-04-18T10:54:47.908Z,17.60
2023-04-18T10:57:15.239Z,19.50
2023-04-18T10:59:51.547Z,18.50
2023-04-18T11:02:23.433Z,19.50
2023-04-18T11:04:59.421Z,21.20
2023-04-18T11:07:48.636Z,19.00
2023-04-18T11:10:25.499Z,17.10
2023-04-18T11:12:53.411Z,18.70
2023-04-18T11:15:25.629Z,17.30
2023-04-18T11:18:05.132Z,17.20
2023-04-18T11:20:51.958Z,19.40
2023-04-18T11:23:25.516Z,16.50
2023-04-18T11:25:56.390Z,16.30
2023-04-18T11:28:24.982Z,15.90
2023-04-18T11:30:51.447Z,16.60
2023-04-18T11:33:18.064Z,17.20
2023-04-18T11:35:46.430Z,15.80
2023-04-18T11:38:15.309Z,16.80
2023-04-18T11:40:49.134Z,17.20
2023-04-18T11:43:21.948Z,19.30
2023-04-18T11:45:57.650Z,16.10
2023-04-18T11:48:34.812Z,14.50
2023-04-18T11:51:01.293Z,14.70
2023-04-18T11:53:36.302Z,14.50
2023-04-18T11:56:04.686Z,13.10
2023-04-18T11:58:33.210Z,12.80
2023-04-18T12:01:25.094Z,12.70
2023-04-18T12:04:08.153Z,11.90
2023-04-18T12:06:53.338Z,13.80
2023-04-18T12:09:24.535Z,13.70
2023-04-18T12:12:02.709Z,14.50
2023-04-18T12:14:30.816Z,13.70
2023-04-18T12:16:57.272Z,14.00
2023-04-18T12:19:28.150Z,13.90
2023-04-18T12:22:06.479Z,12.30
2023-04-18T12:24:34.032Z,13.20
2023-04-18T12:27:00.563Z,11.20
2023-04-18T12:29:28.928Z,10.90
2023-04-18T12:31:55.598Z,12.00
2023-04-18T12:34:22.057Z,12.70
2023-04-18T12:36:48.572Z,11.70
2023-04-18T12:39:15.628Z,11.00
2023-04-18T12:41:42.080Z,12.10
2023-04-18T12:44:09.252Z,11.80
2023-04-18T12:46:35.904Z,11.00
2023-04-18T12:49:02.396Z,11.20
2023-04-18T12:51:29.107Z,12.20
2023-04-18T12:53:56.451Z,12.30
2023-04-18T12:56:22.993Z,12.40
2023-04-18T12:58:49.481Z,11.00
2023-04-18T13:01:17.008Z,16.30
2023-04-18T13:03:43.643Z,14.60
2023-04-18T13:06:10.698Z,12.40
2023-04-18T13:08:38.318Z,13.60
2023-04-18T13:11:04.822Z,14.30
2023-04-18T13:13:32.196Z,13.30
2023-04-18T13:15:59.370Z,14.10
2023-04-18T13:18:25.993Z,13.80
2023-04-18T13:20:55.214Z,13.80
2023-04-18T13:23:21.604Z,14.50
2023-04-18T13:25:47.987Z,14.80
2023-04-18T13:28:14.509Z,13.50
2023-04-18T13:30:40.916Z,13.70
2023-04-18T13:33:07.462Z,13.80
2023-04-18T13:35:34.335Z,14.40
2023-04-18T13:38:00.770Z,15.60
2023-04-18T13:40:27.287Z,14.90
2023-04-18T13:42:53.756Z,13.60
2023-04-18T13:45:20.657Z,13.30
2023-04-18T13:47:47.375Z,15.10
2023-04-18T13:50:14.144Z,15.70
2023-04-18T13:52:40.590Z,15.00
2023-04-18T13:55:08.150Z,16.50
2023-04-18T13:57:35.989Z,16.50
2023-04-18T14:00:02.508Z,17.50
2023-04-18T14:02:29.126Z,14.50
2023-04-18T14:04:56.077Z,16.60
2023-04-18T14:07:22.577Z,18.00
2023-04-18T14:09:49.136Z,18.30
2023-04-18T14:12:15.648Z,14.70
2023-04-18T14:14:42.169Z,17.40
2023-04-18T14:17:09.005Z,17.60
2023-04-18T14:19:35.440Z,16.40
2023-04-18T14:22:01.801Z,18.80
2023-04-18T14:24:28.350Z,16.40
2023-04-18T14:26:54.853Z,17.80
2023-04-18T14:29:21.320Z,18.40
2023-04-18T14:31:48.341Z,18.80
2023-04-18T14:34:14.923Z,18.10
2023-04-18T14:36:41.496Z,19.60
2023-04-18T14:39:08.264Z,16.40
2023-04-18T14:41:34.763Z,16.40
2023-04-18T14:44:01.240Z,16.00
2023-04-18T14:46:29.508Z,15.40
2023-04-18T14:48:57.139Z,12.60
2023-04-18T14:51:24.015Z,17.60
2023-04-18T14:53:50.483Z,14.20
2023-04-18T14:56:21.030Z,14.30
2023-04-18T14:58:47.760Z,14.20
2023-04-18T15:01:14.436Z,17.40
2023-04-18T15:03:41.121Z,15.70
2023-04-18T15:06:07.924Z,15.50
2023-04-18T15:08:34.416Z,15.20
2023-04-18T15:11:01.574Z,17.70
2023-04-18T15:13:28.339Z,15.50
2023-04-18T15:15:57.052Z,14.20
2023-04-18T15:18:23.596Z,16.40
2023-04-18T15:20:50.783Z,16.30
2023-04-18T15:23:17.517Z,16.20
2023-04-18T15:25:45.590Z,15.40
2023-04-18T15:28:14.319Z,18.90
2023-04-18T15:30:41.008Z,12.90
2023-04-18T15:33:08.253Z,14.60
2023-04-18T15:35:35.691Z,15.90
2023-04-18T15:38:02.212Z,17.10
2023-04-18T15:40:28.733Z,13.60
2023-04-18T15:42:56.062Z,15.40
2023-04-18T15:45:22.536Z,16.90
2023-04-18T15:47:49.107Z,15.10
2023-04-18T15:50:16.322Z,16.20
2023-04-18T15:52:43.986Z,16.00
2023-04-18T15:55:13.268Z,14.50
2023-04-18T15:57:41.877Z,13.90
2023-04-18T16:00:18.498Z,15.10
2023-04-18T16:02:46.013Z,14.20
2023-04-18T16:05:13.640Z,13.50
2023-04-18T16:07:42.156Z,14.80
2023-04-18T16:10:10.335Z,14.90
2023-04-18T16:12:38.421Z,15.70
2023-04-18T16:15:09.738Z,12.90
2023-04-18T16:17:37.702Z,13.20
2023-04-18T16:20:06.254Z,12.90
2023-04-18T16:22:32.926Z,13.60
2023-04-18T16:24:59.367Z,16.10
2023-04-18T16:27:26.093Z,14.40
2023-04-18T16:29:53.749Z,13.90
2023-04-18T16:32:21.379Z,13.00
2023-04-18T16:34:48.461Z,12.50
2023-04-18T16:37:14.991Z,16.20
2023-04-18T16:39:41.517Z,13.20
2023-04-18T16:42:07.977Z,12.90
2023-04-18T16:44:34.439Z,10.60
2023-04-18T16:47:01.521Z,15.70
2023-04-18T16:49:28.045Z,13.40
2023-04-18T16:51:54.414Z,13.30
2023-04-18T16:54:20.862Z,14.30
2023-04-18T16:56:47.397Z,12.90
2023-04-18T16:59:13.790Z,14.70
2023-04-18T17:01:40.785Z,12.70
2023-04-18T17:04:07.377Z,14.30
2023-04-18T17:06:33.970Z,14.70
2023-04-18T17:09:00.791Z,15.70
2023-04-18T17:11:27.169Z,30.00
2023-04-18T17:13:53.655Z,35.60
2023-04-18T17:16:20.632Z,40.90
2023-04-18T17:18:47.110Z,49.20
2023-04-18T17:21:13.617Z,35.40
2023-04-18T17:23:42.240Z,39.80
2023-04-18T17:26:09.869Z,47.10
2023-04-18T17:28:36.523Z,45.60
2023-04-18T17:31:03.708Z,45.40
2023-04-18T17:33:31.004Z,36.90
2023-04-18T17:35:58.016Z,38.50
2023-04-18T17:38:24.612Z,31.00
2023-04-18T17:41:01.883Z,32.90
2023-04-18T17:43:28.430Z,39.20
2023-04-18T17:45:56.806Z,35.40
2023-04-18T17:48:23.278Z,37.00
2023-04-18T17:50:49.680Z,35.80
2023-04-18T17:53:17.463Z,32.30
2023-04-18T17:55:45.106Z,35.30
2023-04-18T17:58:11.564Z,33.00
2023-04-18T18:00:38.013Z,37.10
2023-04-18T18:03:05.444Z,35.40
2023-04-18T18:05:32.083Z,30.90
2023-04-18T18:08:00.985Z,38.50
2023-04-18T18:10:28.003Z,34.20
2023-04-18T18:12:54.391Z,31.80
2023-04-18T18:15:21.012Z,28.70
2023-04-18T18:17:54.861Z,26.00
2023-04-18T18:20:21.762Z,21.80
2023-04-18T18:22:48.296Z,26.10
2023-04-18T18:25:15.204Z,31.20
2023-04-18T18:27:41.909Z,27.30
2023-04-18T18:30:08.865Z,29.20
2023-04-18T18:32:35.453Z,26.60
2023-04-18T18:35:02.631Z,22.60
2023-04-18T18:37:29.018Z,20.80
2023-04-18T18:39:56.374Z,20.30
2023-04-18T18:42:26.151Z,22.80
2023-04-18T18:44:52.587Z,20.60
2023-04-18T18:47:19.254Z,15.20
2023-04-18T18:49:45.848Z,15.20
2023-04-18T18:52:12.290Z,17.10
2023-04-18T18:54:38.741Z,13.80
2023-04-18T18:57:05.188Z,14.40
2023-04-18T18:59:31.647Z,13.70
2023-04-18T19:01:58.090Z,15.20
2023-04-18T19:04:25.001Z,15.90
2023-04-18T19:06:51.579Z,16.00
2023-04-18T19:09:17.963Z,16.50
2023-04-18T19:11:44.476Z,15.90
2023-04-18T19:14:11.104Z,18.40
2023-04-18T19:16:37.696Z,17.70
2023-04-18T19:19:04.296Z,16.60
2023-04-18T19:21:31.356Z,15.40
2023-04-18T19:23:57.757Z,13.10
2023-04-18T19:26:24.289Z,13.20
2023-04-18T19:28:50.766Z,12.00
2023-04-18T19:31:17.389Z,11.60
2023-04-18T19:33:43.846Z,13.80
2023-04-18T19:36:10.268Z,16.10
2023-04-18T19:38:36.781Z,11.10
2023-04-18T19:41:03.266Z,13.30
2023-04-18T19:43:29.648Z,15.90
2023-04-18T19:45:56.209Z,14.10
2023-04-18T19:48:22.660Z,12.00
2023-04-18T19:50:49.637Z,14.10
2023-04-18T19:53:18.718Z,13.60
2023-04-18T19:55:45.479Z,13.00
2023-04-18T19:58:11.972Z,14.50
2023-04-18T20:00:39.367Z,15.50
2023-04-18T20:03:05.926Z,15.60
2023-04-18T20:05:32.582Z,15.60
2023-04-18T20:07:58.978Z,17.30
2023-04-18T20:10:25.660Z,14.90
2023-04-18T20:12:52.033Z,14.60
2023-04-18T20:15:18.420Z,14.60
2023-04-18T20:17:45.015Z,13.30
2023-04-18T20:20:12.222Z,18.10
2023-04-18T20:22:40.265Z,16.60
2023-04-18T20:25:07.204Z,16.00
2023-04-18T20:27:33.642Z,13.70
2023-04-18T20:30:00.180Z,13.30
2023-04-18T20:32:26.866Z,16.30
2023-04-18T20:34:53.501Z,13.70
2023-04-18T20:37:20.241Z,12.60
2023-04-18T20:39:47.410Z,14.40
2023-04-18T20:42:14.508Z,14.20
2023-04-18T20:44:43.249Z,14.70
2023-04-18T20:47:09.779Z,14.00
2023-04-18T20:49:36.302Z,14.40
2023-04-18T20:52:02.873Z,14.00
2023-04-18T20:54:29.303Z,13.50
2023-04-18T20:56:56.122Z,12.80
2023-04-18T20:59:22.522Z,13.60
2023-04-18T21:01:49.010Z,12.60
2023-04-18T21:04:16.045Z,14.70
2023-04-18T21:06:42.870Z,14.70
2023-04-18T21:09:09.342Z,13.70
2023-04-18T21:11:35.842Z,16.20
2023-04-18T21:14:03.831Z,14.70
2023-04-18T21:16:30.488Z,12.60
2023-04-18T21:18:56.946Z,14.50
2023-04-18T21:21:24.674Z,12.80
2023-04-18T21:23:51.173Z,13.90
2023-04-18T21:26:17.612Z,14.30
2023-04-18T21:29:01.833Z,14.80
2023-04-18T21:31:31.561Z,11.40
2023-04-18T21:34:00.872Z,12.40
2023-04-18T21:36:28.938Z,14.30
2023-04-18T21:38:58.209Z,12.20
2023-04-18T21:41:25.831Z,12.90
2023-04-18T21:43:53.076Z,16.00
2023-04-18T21:46:19.937Z,15.50
2023-04-18T21:48:47.313Z,15.30
2023-04-18T21:51:16.404Z,14.30
2023-04-18T21:53:43.250Z,15.30
2023-04-18T21:56:09.774Z,14.30
2023-04-18T21:58:36.231Z,14.80
2023-04-18T22:01:03.249Z,16.10
2023-04-18T22:03:31.584Z,14.20
2023-04-18T22:05:58.777Z,14.10
2023-04-18T22:08:25.779Z,14.20
2023-04-18T22:10:58.813Z,13.90
2023-04-18T22:13:32.685Z,17.10
2023-04-18T22:16:03.995Z,17.50
2023-04-18T22:18:33.900Z,19.40
2023-04-18T22:21:03.224Z,14.40
2023-04-18T22:23:30.925Z,13.40
2023-04-18T22:25:57.868Z,13.30
2023-04-18T22:28:24.460Z,14.50
2023-04-18T22:30:51.412Z,16.90
2023-04-18T22:33:18.198Z,15.60
2023-04-18T22:35:47.706Z,14.00
2023-04-18T22:38:14.342Z,14.00
2023-04-18T22:40:40.779Z,16.30
2023-04-18T22:43:07.246Z,13.70
2023-04-18T22:45:34.617Z,13.60
2023-04-18T22:48:01.341Z,12.60
2023-04-18T22:50:27.759Z,13.80
2023-04-18T22:52:54.263Z,15.20
2023-04-18T22:55:20.700Z,17.50
2023-04-18T22:57:47.146Z,17.70
2023-04-18T23:00:14.653Z,16.40
2023-04-18T23:02:41.658Z,13.90
2023-04-18T23:05:10.687Z,16.20
2023-04-18T23:07:37.104Z,14.30
2023-04-18T23:10:06.635Z,13.30
2023-04-18T23:12:33.448Z,16.20
2023-04-18T23:14:59.892Z,12.80
2023-04-18T23:17:26.292Z,12.70
2023-04-18T23:19:52.767Z,14.70
2023-04-18T23:22:19.188Z,14.90
2023-04-18T23:24:45.740Z,14.00
2023-04-18T23:27:12.157Z,16.50
2023-04-18T23:29:39.175Z,15.00
2023-04-18T23:32:06.583Z,12.40
2023-04-18T23:34:32.973Z,15.80
2023-04-18T23:37:00.579Z,14.70
2023-04-18T23:39:26.989Z,14.30
2023-04-18T23:41:53.605Z,14.30
2023-04-18T23:44:20.154Z,14.60
2023-04-18T23:46:47.730Z,13.90
2023-04-18T23:49:15.172Z,16.30
2023-04-18T23:51:42.146Z,15.70
2023-04-18T23:54:08.606Z,15.80
2023-04-18T23:56:35.207Z,16.60
2023-04-18T23:59:01.632Z,17.90
